Kinston Regional Jetport At Stallings Field
KISO : now visible

Airfield :











YOU CAN JOIN US ON...

 
LOGIN :

Register | Disclaimer

   EN    FR    IT 

 









Legend :    VFR   Marginal VFR   IFR   Intensive IFR   Very Intensive IFR
Visi :
Ceiling :
>= 8 km
>= 3000ft
5 to 8 km
1000 to 3000 ft
1500m to 5 km
500 to 1000 ft
800 to 1500m
200 to 500 ft
< 800m
< 200 ft
Symbols :   Thunderstorms  Fog  Heavy snow  Heavy precipitations  Wind > 20 kt






- Airport Elevation : 93 ft


KISO - Kinston Regional Jetport At Stallings Field

CURRENT METAR :
  • 200815Z AUTO 24004KT 10SM CLR 10/03 A3012 RMK AO2 T01030026

EXPIRED METARs :
  • 200755Z AUTO 21006KT 10SM CLR 10/02 A3012 RMK AO2 T00990023
  • 200735Z AUTO 21007KT 10SM CLR 11/02 A3012 RMK AO2 T01050020
  • 200715Z AUTO 20008KT 10SM CLR 11/02 A3012 RMK AO2 T01100020
  • 200655Z AUTO 20009KT 10SM CLR 11/02 A3012 RMK AO2 T01080020
  • 200635Z AUTO 19010KT 10SM CLR 11/02 A3012 RMK AO2 T01110021
  • 200615Z AUTO 19009KT 10SM CLR 11/02 A3012 RMK AO2 T01080019
  • 200555Z AUTO 20008KT 10SM CLR 11/02 A3013 RMK AO2 T01070015 10111 20093 401581030
  • 200535Z AUTO 20009KT 10SM SCT120 11/02 A3014 RMK AO2 T01100018

TAF KISO
Valid from the 20 at 06:00 until the 21 at 06:00 UTC


200537Z 2006/2106 21006KT P6SM BKN150
FM201700 28007KT P6SM BKN070
FM202000 34007KT P6SM OVC025
FM202200 01012G18KT P6SM -RA OVC007
FM210200 02013G20KT 5SM -FZRA OVC007 AMD LTD TO CLD VIS AND WIND
KZDC FIR / North America



MET'MAP, your aeronautical weather chart ! - Copyright ORBIFLY December 2007 - Disclaimer

ORBIFLY MET'MAP TEAM :

Programming & Development : Alexandra Zaïnal
Concept & original design : Baudouin d'Aumeries
Assistance for programming : Marc-Olivier Méhu
Technical & hardware support : Manuel Goepfert

Contact : metmap@orbifly.com




SOURCES & CREDITS :

   NOAA       Earth
Advisory